sensor_id;sensor_type;location;lat;lon;timestamp;P1;durP1;ratioP1;P2;durP2;ratioP2
51985;SDS011;38002;53.296;6.600;2023-04-24T00:01:05;6.57;;;3.40;;
51985;SDS011;38002;53.296;6.600;2023-04-24T00:06:07;5.28;;;4.80;;
51985;SDS011;38002;53.296;6.600;2023-04-24T00:11:08;3.92;;;3.30;;
51985;SDS011;38002;53.296;6.600;2023-04-24T00:16:09;5.30;;;4.80;;
51985;SDS011;38002;53.296;6.600;2023-04-24T00:21:09;12.18;;;4.90;;
51985;SDS011;38002;53.296;6.600;2023-04-24T00:26:10;5.35;;;4.85;;
51985;SDS011;38002;53.296;6.600;2023-04-24T00:31:10;5.00;;;4.50;;
51985;SDS011;38002;53.296;6.600;2023-04-24T00:36:11;6.10;;;4.85;;
51985;SDS011;38002;53.296;6.600;2023-04-24T00:41:12;4.20;;;3.77;;
51985;SDS011;38002;53.296;6.600;2023-04-24T00:46:13;3.90;;;3.60;;
51985;SDS011;38002;53.296;6.600;2023-04-24T00:51:14;3.30;;;3.10;;
51985;SDS011;38002;53.296;6.600;2023-04-24T00:56:14;2.90;;;2.60;;
51985;SDS011;38002;53.296;6.600;2023-04-24T01:01:15;2.30;;;2.20;;
51985;SDS011;38002;53.296;6.600;2023-04-24T01:06:16;1.75;;;1.65;;
51985;SDS011;38002;53.296;6.600;2023-04-24T01:11:17;2.13;;;1.90;;
51985;SDS011;38002;53.296;6.600;2023-04-24T01:16:18;1.52;;;1.50;;
51985;SDS011;38002;53.296;6.600;2023-04-24T01:21:21;1.80;;;1.70;;
51985;SDS011;38002;53.296;6.600;2023-04-24T01:26:23;2.05;;;1.60;;
51985;SDS011;38002;53.296;6.600;2023-04-24T01:31:25;1.45;;;1.35;;
51985;SDS011;38002;53.296;6.600;2023-04-24T01:36:26;1.38;;;1.27;;
51985;SDS011;38002;53.296;6.600;2023-04-24T01:41:28;2.38;;;1.08;;
51985;SDS011;38002;53.296;6.600;2023-04-24T01:46:29;1.20;;;1.07;;
51985;SDS011;38002;53.296;6.600;2023-04-24T01:56:33;1.17;;;1.17;;
51985;SDS011;38002;53.296;6.600;2023-04-24T02:01:36;1.77;;;1.55;;
51985;SDS011;38002;53.296;6.600;2023-04-24T02:06:37;1.40;;;1.30;;
51985;SDS011;38002;53.296;6.600;2023-04-24T02:11:37;1.40;;;1.30;;
51985;SDS011;38002;53.296;6.600;2023-04-24T02:16:38;2.20;;;2.10;;
51985;SDS011;38002;53.296;6.600;2023-04-24T02:21:38;1.92;;;1.83;;
51985;SDS011;38002;53.296;6.600;2023-04-24T02:26:38;1.80;;;1.70;;
51985;SDS011;38002;53.296;6.600;2023-04-24T02:31:39;2.33;;;2.22;;
51985;SDS011;38002;53.296;6.600;2023-04-24T02:36:39;2.28;;;2.17;;
51985;SDS011;38002;53.296;6.600;2023-04-24T02:41:40;3.28;;;3.08;;
51985;SDS011;38002;53.296;6.600;2023-04-24T02:46:40;3.08;;;2.83;;
51985;SDS011;38002;53.296;6.600;2023-04-24T02:51:42;3.83;;;3.33;;
51985;SDS011;38002;53.296;6.600;2023-04-24T02:56:42;4.13;;;3.78;;
51985;SDS011;38002;53.296;6.600;2023-04-24T03:01:42;5.88;;;3.80;;
51985;SDS011;38002;53.296;6.600;2023-04-24T03:06:43;4.35;;;4.05;;
51985;SDS011;38002;53.296;6.600;2023-04-24T03:11:43;4.13;;;3.83;;
51985;SDS011;38002;53.296;6.600;2023-04-24T03:16:44;5.43;;;4.93;;
51985;SDS011;38002;53.296;6.600;2023-04-24T03:21:44;4.97;;;4.45;;
51985;SDS011;38002;53.296;6.600;2023-04-24T03:26:45;4.70;;;4.30;;
51985;SDS011;38002;53.296;6.600;2023-04-24T03:31:45;5.72;;;5.22;;
51985;SDS011;38002;53.296;6.600;2023-04-24T03:36:46;5.68;;;5.18;;
51985;SDS011;38002;53.296;6.600;2023-04-24T03:41:49;8.38;;;5.65;;
51985;SDS011;38002;53.296;6.600;2023-04-24T03:46:49;6.80;;;5.88;;
51985;SDS011;38002;53.296;6.600;2023-04-24T03:51:50;6.80;;;6.10;;
51985;SDS011;38002;53.296;6.600;2023-04-24T03:56:50;7.38;;;6.53;;
51985;SDS011;38002;53.296;6.600;2023-04-24T04:01:51;8.20;;;6.90;;
51985;SDS011;38002;53.296;6.600;2023-04-24T04:06:51;9.73;;;6.88;;
51985;SDS011;38002;53.296;6.600;2023-04-24T04:11:53;9.65;;;7.30;;
51985;SDS011;38002;53.296;6.600;2023-04-24T04:16:53;11.30;;;8.27;;
51985;SDS011;38002;53.296;6.600;2023-04-24T04:21:54;10.50;;;8.43;;
51985;SDS011;38002;53.296;6.600;2023-04-24T04:26:56;10.80;;;9.65;;
51985;SDS011;38002;53.296;6.600;2023-04-24T04:31:58;13.55;;;9.93;;
51985;SDS011;38002;53.296;6.600;2023-04-24T04:36:59;11.40;;;10.18;;
51985;SDS011;38002;53.296;6.600;2023-04-24T04:42:02;12.32;;;9.48;;
51985;SDS011;38002;53.296;6.600;2023-04-24T04:47:02;15.13;;;9.95;;
51985;SDS011;38002;53.296;6.600;2023-04-24T04:52:06;13.60;;;11.52;;
51985;SDS011;38002;53.296;6.600;2023-04-24T04:57:06;6.40;;;5.68;;
51985;SDS011;38002;53.296;6.600;2023-04-24T05:02:07;7.82;;;6.53;;
51985;SDS011;38002;53.296;6.600;2023-04-24T05:07:07;4.78;;;4.25;;
51985;SDS011;38002;53.296;6.600;2023-04-24T05:12:08;4.35;;;3.78;;
51985;SDS011;38002;53.296;6.600;2023-04-24T05:17:08;4.60;;;3.97;;
51985;SDS011;38002;53.296;6.600;2023-04-24T05:22:09;5.53;;;4.22;;
51985;SDS011;38002;53.296;6.600;2023-04-24T05:27:10;7.70;;;4.50;;
51985;SDS011;38002;53.296;6.600;2023-04-24T05:32:10;5.75;;;4.30;;
51985;SDS011;38002;53.296;6.600;2023-04-24T05:37:11;7.35;;;4.60;;
51985;SDS011;38002;53.296;6.600;2023-04-24T05:42:11;9.93;;;5.85;;
51985;SDS011;38002;53.296;6.600;2023-04-24T05:47:12;6.78;;;4.80;;
51985;SDS011;38002;53.296;6.600;2023-04-24T05:52:12;5.68;;;3.53;;
51985;SDS011;38002;53.296;6.600;2023-04-24T05:57:13;5.32;;;3.83;;
51985;SDS011;38002;53.296;6.600;2023-04-24T06:02:14;4.07;;;3.78;;
51985;SDS011;38002;53.296;6.600;2023-04-24T06:07:14;4.88;;;4.22;;
51985;SDS011;38002;53.296;6.600;2023-04-24T06:12:14;6.40;;;4.40;;
51985;SDS011;38002;53.296;6.600;2023-04-24T06:17:15;6.75;;;5.05;;
51985;SDS011;38002;53.296;6.600;2023-04-24T06:22:16;8.50;;;5.40;;
51985;SDS011;38002;53.296;6.600;2023-04-24T06:27:16;8.25;;;4.32;;
51985;SDS011;38002;53.296;6.600;2023-04-24T06:32:16;5.28;;;3.90;;
51985;SDS011;38002;53.296;6.600;2023-04-24T06:37:18;4.15;;;3.75;;
51985;SDS011;38002;53.296;6.600;2023-04-24T06:42:19;3.75;;;3.08;;
51985;SDS011;38002;53.296;6.600;2023-04-24T06:47:20;5.00;;;3.22;;
51985;SDS011;38002;53.296;6.600;2023-04-24T06:52:21;6.75;;;2.10;;
51985;SDS011;38002;53.296;6.600;2023-04-24T06:57:22;3.08;;;2.20;;
51985;SDS011;38002;53.296;6.600;2023-04-24T07:02:22;1.30;;;1.23;;
51985;SDS011;38002;53.296;6.600;2023-04-24T07:07:23;3.35;;;1.45;;
51985;SDS011;38002;53.296;6.600;2023-04-24T07:12:23;4.97;;;1.40;;
51985;SDS011;38002;53.296;6.600;2023-04-24T07:17:24;6.15;;;1.92;;
51985;SDS011;38002;53.296;6.600;2023-04-24T07:22:24;4.53;;;1.80;;
51985;SDS011;38002;53.296;6.600;2023-04-24T07:27:25;2.65;;;1.52;;
51985;SDS011;38002;53.296;6.600;2023-04-24T07:32:25;3.90;;;1.55;;
51985;SDS011;38002;53.296;6.600;2023-04-24T07:37:26;5.53;;;2.60;;
51985;SDS011;38002;53.296;6.600;2023-04-24T07:42:27;5.60;;;2.85;;
51985;SDS011;38002;53.296;6.600;2023-04-24T07:47:28;6.33;;;2.97;;
51985;SDS011;38002;53.296;6.600;2023-04-24T07:52:28;4.80;;;2.55;;
51985;SDS011;38002;53.296;6.600;2023-04-24T07:57:29;6.72;;;4.20;;
51985;SDS011;38002;53.296;6.600;2023-04-24T08:02:29;8.88;;;5.90;;
51985;SDS011;38002;53.296;6.600;2023-04-24T08:07:30;10.10;;;6.07;;
51985;SDS011;38002;53.296;6.600;2023-04-24T08:12:30;8.40;;;6.38;;
51985;SDS011;38002;53.296;6.600;2023-04-24T08:17:31;18.58;;;8.82;;
51985;SDS011;38002;53.296;6.600;2023-04-24T08:22:31;15.65;;;10.23;;
51985;SDS011;38002;53.296;6.600;2023-04-24T08:27:32;15.45;;;9.90;;
51985;SDS011;38002;53.296;6.600;2023-04-24T08:32:32;22.98;;;11.48;;
51985;SDS011;38002;53.296;6.600;2023-04-24T08:37:33;19.10;;;10.00;;
51985;SDS011;38002;53.296;6.600;2023-04-24T08:42:34;15.25;;;10.05;;
51985;SDS011;38002;53.296;6.600;2023-04-24T08:47:40;16.90;;;8.85;;
51985;SDS011;38002;53.296;6.600;2023-04-24T08:52:42;10.45;;;8.30;;
51985;SDS011;38002;53.296;6.600;2023-04-24T08:57:42;16.75;;;8.23;;
51985;SDS011;38002;53.296;6.600;2023-04-24T09:02:44;21.50;;;8.52;;
51985;SDS011;38002;53.296;6.600;2023-04-24T09:07:57;14.40;;;8.60;;
51985;SDS011;38002;53.296;6.600;2023-04-24T09:12:59;11.70;;;7.70;;
51985;SDS011;38002;53.296;6.600;2023-04-24T09:23:02;12.10;;;5.97;;
51985;SDS011;38002;53.296;6.600;2023-04-24T09:28:03;11.70;;;6.50;;
51985;SDS011;38002;53.296;6.600;2023-04-24T09:33:12;17.73;;;6.95;;
51985;SDS011;38002;53.296;6.600;2023-04-24T09:38:13;10.98;;;6.75;;
51985;SDS011;38002;53.296;6.600;2023-04-24T09:43:14;8.50;;;5.07;;
51985;SDS011;38002;53.296;6.600;2023-04-24T09:48:15;7.45;;;5.35;;
51985;SDS011;38002;53.296;6.600;2023-04-24T09:53:15;11.13;;;5.80;;
51985;SDS011;38002;53.296;6.600;2023-04-24T09:58:26;10.43;;;4.47;;
51985;SDS011;38002;53.296;6.600;2023-04-24T10:03:34;14.82;;;5.22;;
51985;SDS011;38002;53.296;6.600;2023-04-24T10:08:35;19.98;;;6.05;;
51985;SDS011;38002;53.296;6.600;2023-04-24T10:18:40;8.15;;;4.20;;
51985;SDS011;38002;53.296;6.600;2023-04-24T10:23:41;7.25;;;3.80;;
51985;SDS011;38002;53.296;6.600;2023-04-24T10:28:43;7.85;;;3.10;;
51985;SDS011;38002;53.296;6.600;2023-04-24T10:33:45;7.32;;;3.00;;
51985;SDS011;38002;53.296;6.600;2023-04-24T10:38:46;4.22;;;2.47;;
51985;SDS011;38002;53.296;6.600;2023-04-24T10:44:12;8.88;;;2.92;;
51985;SDS011;38002;53.296;6.600;2023-04-24T10:49:14;5.55;;;2.55;;
51985;SDS011;38002;53.296;6.600;2023-04-24T10:54:24;7.75;;;3.15;;
51985;SDS011;38002;53.296;6.600;2023-04-24T10:59:26;10.18;;;2.47;;
51985;SDS011;38002;53.296;6.600;2023-04-24T11:09:31;6.85;;;2.20;;
51985;SDS011;38002;53.296;6.600;2023-04-24T11:25:01;8.80;;;2.78;;
51985;SDS011;38002;53.296;6.600;2023-04-24T11:30:02;4.15;;;1.73;;
51985;SDS011;38002;53.296;6.600;2023-04-24T11:40:15;5.70;;;1.97;;
51985;SDS011;38002;53.296;6.600;2023-04-24T11:45:18;9.88;;;2.20;;
51985;SDS011;38002;53.296;6.600;2023-04-24T11:50:22;2.97;;;1.40;;
51985;SDS011;38002;53.296;6.600;2023-04-24T11:55:26;4.53;;;1.50;;
51985;SDS011;38002;53.296;6.600;2023-04-24T12:05:29;3.53;;;1.27;;
51985;SDS011;38002;53.296;6.600;2023-04-24T12:15:32;7.80;;;1.30;;
51985;SDS011;38002;53.296;6.600;2023-04-24T12:20:33;7.65;;;1.42;;
51985;SDS011;38002;53.296;6.600;2023-04-24T12:25:35;11.43;;;2.28;;
51985;SDS011;38002;53.296;6.600;2023-04-24T12:30:43;4.85;;;1.38;;
51985;SDS011;38002;53.296;6.600;2023-04-24T12:47:07;2.58;;;1.20;;
51985;SDS011;38002;53.296;6.600;2023-04-24T12:52:07;4.55;;;1.40;;
51985;SDS011;38002;53.296;6.600;2023-04-24T12:57:08;6.95;;;1.80;;
51985;SDS011;38002;53.296;6.600;2023-04-24T13:02:08;8.90;;;1.52;;
51985;SDS011;38002;53.296;6.600;2023-04-24T13:07:10;5.30;;;0.90;;
51985;SDS011;38002;53.296;6.600;2023-04-24T13:12:10;2.60;;;0.82;;
51985;SDS011;38002;53.296;6.600;2023-04-24T13:17:11;3.88;;;0.75;;
51985;SDS011;38002;53.296;6.600;2023-04-24T13:22:13;4.60;;;0.90;;
51985;SDS011;38002;53.296;6.600;2023-04-24T13:27:13;3.80;;;1.02;;
51985;SDS011;38002;53.296;6.600;2023-04-24T13:32:14;4.30;;;1.08;;
51985;SDS011;38002;53.296;6.600;2023-04-24T13:37:15;4.75;;;1.00;;
51985;SDS011;38002;53.296;6.600;2023-04-24T13:42:15;2.95;;;0.57;;
51985;SDS011;38002;53.296;6.600;2023-04-24T13:47:16;2.13;;;0.40;;
51985;SDS011;38002;53.296;6.600;2023-04-24T13:52:16;2.50;;;0.55;;
51985;SDS011;38002;53.296;6.600;2023-04-24T13:57:17;3.08;;;1.30;;
51985;SDS011;38002;53.296;6.600;2023-04-24T14:02:17;1.80;;;0.50;;
51985;SDS011;38002;53.296;6.600;2023-04-24T14:07:18;3.78;;;1.27;;
51985;SDS011;38002;53.296;6.600;2023-04-24T14:12:18;3.92;;;1.30;;
51985;SDS011;38002;53.296;6.600;2023-04-24T14:17:19;2.07;;;1.40;;
51985;SDS011;38002;53.296;6.600;2023-04-24T14:22:20;8.82;;;1.95;;
51985;SDS011;38002;53.296;6.600;2023-04-24T14:27:20;4.90;;;1.48;;
51985;SDS011;38002;53.296;6.600;2023-04-24T14:32:21;4.07;;;1.60;;
51985;SDS011;38002;53.296;6.600;2023-04-24T14:37:21;3.75;;;1.58;;
51985;SDS011;38002;53.296;6.600;2023-04-24T14:42:22;4.20;;;1.60;;
51985;SDS011;38002;53.296;6.600;2023-04-24T14:47:22;2.20;;;1.48;;
51985;SDS011;38002;53.296;6.600;2023-04-24T14:52:23;6.30;;;2.20;;
51985;SDS011;38002;53.296;6.600;2023-04-24T14:57:23;16.50;;;6.72;;
51985;SDS011;38002;53.296;6.600;2023-04-24T15:02:24;19.13;;;8.57;;
51985;SDS011;38002;53.296;6.600;2023-04-24T15:07:24;13.63;;;6.07;;
51985;SDS011;38002;53.296;6.600;2023-04-24T15:12:25;10.38;;;6.10;;
51985;SDS011;38002;53.296;6.600;2023-04-24T15:17:26;6.32;;;2.78;;
51985;SDS011;38002;53.296;6.600;2023-04-24T15:22:26;12.70;;;5.25;;
51985;SDS011;38002;53.296;6.600;2023-04-24T15:27:27;16.08;;;6.72;;
51985;SDS011;38002;53.296;6.600;2023-04-24T15:32:27;26.35;;;11.15;;
51985;SDS011;38002;53.296;6.600;2023-04-24T15:37:28;12.48;;;6.28;;
51985;SDS011;38002;53.296;6.600;2023-04-24T15:42:28;10.50;;;7.93;;
51985;SDS011;38002;53.296;6.600;2023-04-24T15:47:28;11.40;;;3.70;;
51985;SDS011;38002;53.296;6.600;2023-04-24T15:52:29;12.38;;;7.18;;
51985;SDS011;38002;53.296;6.600;2023-04-24T15:57:30;7.65;;;6.10;;
51985;SDS011;38002;53.296;6.600;2023-04-24T16:02:31;5.30;;;3.28;;
51985;SDS011;38002;53.296;6.600;2023-04-24T16:07:32;11.27;;;3.00;;
51985;SDS011;38002;53.296;6.600;2023-04-24T16:12:33;4.18;;;2.40;;
51985;SDS011;38002;53.296;6.600;2023-04-24T16:17:34;6.28;;;3.03;;
51985;SDS011;38002;53.296;6.600;2023-04-24T16:22:34;7.82;;;2.83;;
51985;SDS011;38002;53.296;6.600;2023-04-24T16:27:35;7.85;;;4.72;;
51985;SDS011;38002;53.296;6.600;2023-04-24T16:32:35;4.57;;;2.25;;
51985;SDS011;38002;53.296;6.600;2023-04-24T16:37:36;3.05;;;2.67;;
51985;SDS011;38002;53.296;6.600;2023-04-24T16:42:36;4.00;;;2.47;;
51985;SDS011;38002;53.296;6.600;2023-04-24T16:47:37;8.27;;;6.43;;
51985;SDS011;38002;53.296;6.600;2023-04-24T16:52:38;16.25;;;10.30;;
51985;SDS011;38002;53.296;6.600;2023-04-24T16:57:38;7.80;;;3.75;;
51985;SDS011;38002;53.296;6.600;2023-04-24T17:02:39;8.02;;;3.78;;
51985;SDS011;38002;53.296;6.600;2023-04-24T17:07:40;2.80;;;2.10;;
51985;SDS011;38002;53.296;6.600;2023-04-24T17:12:42;2.88;;;1.65;;
51985;SDS011;38002;53.296;6.600;2023-04-24T17:17:42;6.03;;;1.70;;
51985;SDS011;38002;53.296;6.600;2023-04-24T17:22:45;2.38;;;1.52;;
51985;SDS011;38002;53.296;6.600;2023-04-24T17:27:45;6.43;;;2.80;;
51985;SDS011;38002;53.296;6.600;2023-04-24T17:32:46;20.75;;;13.35;;
51985;SDS011;38002;53.296;6.600;2023-04-24T17:37:46;8.85;;;8.05;;
51985;SDS011;38002;53.296;6.600;2023-04-24T17:42:47;7.55;;;4.60;;
51985;SDS011;38002;53.296;6.600;2023-04-24T17:47:47;2.90;;;2.70;;
51985;SDS011;38002;53.296;6.600;2023-04-24T17:52:47;6.40;;;5.38;;
51985;SDS011;38002;53.296;6.600;2023-04-24T17:57:48;8.15;;;7.28;;
51985;SDS011;38002;53.296;6.600;2023-04-24T18:02:49;5.10;;;3.72;;
51985;SDS011;38002;53.296;6.600;2023-04-24T18:07:52;5.57;;;2.92;;
51985;SDS011;38002;53.296;6.600;2023-04-24T18:12:53;4.47;;;2.85;;
51985;SDS011;38002;53.296;6.600;2023-04-24T18:17:54;3.80;;;2.58;;
51985;SDS011;38002;53.296;6.600;2023-04-24T18:22:54;5.40;;;2.58;;
51985;SDS011;38002;53.296;6.600;2023-04-24T18:27:55;21.08;;;14.65;;
51985;SDS011;38002;53.296;6.600;2023-04-24T18:32:55;5.95;;;3.65;;
51985;SDS011;38002;53.296;6.600;2023-04-24T18:37:55;5.90;;;2.10;;
51985;SDS011;38002;53.296;6.600;2023-04-24T18:42:59;10.43;;;4.95;;
51985;SDS011;38002;53.296;6.600;2023-04-24T18:47:59;18.10;;;13.48;;
51985;SDS011;38002;53.296;6.600;2023-04-24T18:53:00;9.20;;;6.00;;
51985;SDS011;38002;53.296;6.600;2023-04-24T18:58:01;8.95;;;6.95;;
51985;SDS011;38002;53.296;6.600;2023-04-24T19:03:02;8.95;;;4.95;;
51985;SDS011;38002;53.296;6.600;2023-04-24T19:08:03;9.75;;;5.47;;
51985;SDS011;38002;53.296;6.600;2023-04-24T19:13:03;6.60;;;4.95;;
51985;SDS011;38002;53.296;6.600;2023-04-24T19:18:04;16.90;;;10.15;;
51985;SDS011;38002;53.296;6.600;2023-04-24T19:23:05;9.07;;;5.40;;
51985;SDS011;38002;53.296;6.600;2023-04-24T19:28:06;20.23;;;10.23;;
51985;SDS011;38002;53.296;6.600;2023-04-24T19:33:07;14.70;;;6.57;;
51985;SDS011;38002;53.296;6.600;2023-04-24T19:38:07;10.02;;;4.40;;
51985;SDS011;38002;53.296;6.600;2023-04-24T19:43:08;4.07;;;2.22;;
51985;SDS011;38002;53.296;6.600;2023-04-24T19:48:08;8.15;;;2.60;;
51985;SDS011;38002;53.296;6.600;2023-04-24T19:53:09;4.97;;;2.35;;
51985;SDS011;38002;53.296;6.600;2023-04-24T19:58:11;8.10;;;2.53;;
51985;SDS011;38002;53.296;6.600;2023-04-24T20:03:11;8.85;;;2.42;;
51985;SDS011;38002;53.296;6.600;2023-04-24T20:08:12;8.88;;;2.70;;
51985;SDS011;38002;53.296;6.600;2023-04-24T20:13:12;13.88;;;3.60;;
51985;SDS011;38002;53.296;6.600;2023-04-24T20:18:13;17.33;;;4.63;;
51985;SDS011;38002;53.296;6.600;2023-04-24T20:23:13;30.42;;;5.25;;
51985;SDS011;38002;53.296;6.600;2023-04-24T20:28:14;23.08;;;5.03;;
51985;SDS011;38002;53.296;6.600;2023-04-24T20:33:16;18.33;;;3.95;;
51985;SDS011;38002;53.296;6.600;2023-04-24T20:38:16;18.95;;;4.65;;
51985;SDS011;38002;53.296;6.600;2023-04-24T20:43:17;21.75;;;4.22;;
51985;SDS011;38002;53.296;6.600;2023-04-24T20:48:18;27.75;;;4.93;;
51985;SDS011;38002;53.296;6.600;2023-04-24T20:53:18;18.33;;;4.05;;
51985;SDS011;38002;53.296;6.600;2023-04-24T20:58:20;26.47;;;4.93;;
51985;SDS011;38002;53.296;6.600;2023-04-24T21:03:21;19.90;;;4.07;;
51985;SDS011;38002;53.296;6.600;2023-04-24T21:08:22;20.00;;;3.58;;
51985;SDS011;38002;53.296;6.600;2023-04-24T21:13:23;23.83;;;5.15;;
51985;SDS011;38002;53.296;6.600;2023-04-24T21:18:23;20.92;;;4.07;;
51985;SDS011;38002;53.296;6.600;2023-04-24T21:23:25;9.50;;;3.33;;
51985;SDS011;38002;53.296;6.600;2023-04-24T21:28:25;20.23;;;4.20;;
51985;SDS011;38002;53.296;6.600;2023-04-24T21:33:26;17.05;;;4.00;;
51985;SDS011;38002;53.296;6.600;2023-04-24T21:38:27;22.70;;;4.00;;
51985;SDS011;38002;53.296;6.600;2023-04-24T21:43:28;16.88;;;4.30;;
51985;SDS011;38002;53.296;6.600;2023-04-24T21:48:28;23.15;;;3.28;;
51985;SDS011;38002;53.296;6.600;2023-04-24T21:53:29;14.68;;;3.00;;
51985;SDS011;38002;53.296;6.600;2023-04-24T21:58:29;15.05;;;3.05;;
51985;SDS011;38002;53.296;6.600;2023-04-24T22:03:30;17.90;;;3.90;;
51985;SDS011;38002;53.296;6.600;2023-04-24T22:08:30;14.20;;;3.40;;
51985;SDS011;38002;53.296;6.600;2023-04-24T22:13:31;14.30;;;3.80;;
51985;SDS011;38002;53.296;6.600;2023-04-24T22:18:31;15.55;;;4.00;;
51985;SDS011;38002;53.296;6.600;2023-04-24T22:23:32;19.88;;;3.10;;
51985;SDS011;38002;53.296;6.600;2023-04-24T22:28:32;14.90;;;2.63;;
51985;SDS011;38002;53.296;6.600;2023-04-24T22:33:33;10.45;;;2.63;;
51985;SDS011;38002;53.296;6.600;2023-04-24T22:38:33;12.98;;;2.92;;
51985;SDS011;38002;53.296;6.600;2023-04-24T22:43:34;12.40;;;2.38;;
51985;SDS011;38002;53.296;6.600;2023-04-24T22:48:34;11.25;;;3.03;;
51985;SDS011;38002;53.296;6.600;2023-04-24T22:53:35;11.90;;;3.40;;
51985;SDS011;38002;53.296;6.600;2023-04-24T22:58:35;18.40;;;3.22;;
51985;SDS011;38002;53.296;6.600;2023-04-24T23:03:36;15.32;;;3.05;;
51985;SDS011;38002;53.296;6.600;2023-04-24T23:08:36;19.70;;;3.28;;
51985;SDS011;38002;53.296;6.600;2023-04-24T23:13:37;15.98;;;3.00;;
51985;SDS011;38002;53.296;6.600;2023-04-24T23:18:39;17.52;;;3.42;;
51985;SDS011;38002;53.296;6.600;2023-04-24T23:23:39;20.17;;;2.72;;
51985;SDS011;38002;53.296;6.600;2023-04-24T23:28:40;18.25;;;3.33;;
51985;SDS011;38002;53.296;6.600;2023-04-24T23:33:40;15.45;;;3.03;;
51985;SDS011;38002;53.296;6.600;2023-04-24T23:38:41;12.02;;;3.22;;
51985;SDS011;38002;53.296;6.600;2023-04-24T23:43:42;18.08;;;3.42;;
51985;SDS011;38002;53.296;6.600;2023-04-24T23:48:42;11.73;;;2.92;;
51985;SDS011;38002;53.296;6.600;2023-04-24T23:53:43;16.20;;;3.40;;
51985;SDS011;38002;53.296;6.600;2023-04-24T23:58:43;16.58;;;4.20;;
